sensor_id;sensor_type;location;lat;lon;timestamp;P1;durP1;ratioP1;P2;durP2;ratioP2
20170;SDS011;10245;51.344;6.620;2023-02-28T00:01:15;10.17;;;5.20;;
20170;SDS011;10245;51.344;6.620;2023-02-28T00:03:38;10.80;;;5.80;;
20170;SDS011;10245;51.344;6.620;2023-02-28T00:06:02;11.63;;;5.87;;
20170;SDS011;10245;51.344;6.620;2023-02-28T00:08:26;10.80;;;6.17;;
20170;SDS011;10245;51.344;6.620;2023-02-28T00:10:49;8.67;;;5.93;;
20170;SDS011;10245;51.344;6.620;2023-02-28T00:13:14;9.67;;;6.13;;
20170;SDS011;10245;51.344;6.620;2023-02-28T00:15:37;11.13;;;5.60;;
20170;SDS011;10245;51.344;6.620;2023-02-28T00:18:01;10.17;;;5.80;;
20170;SDS011;10245;51.344;6.620;2023-02-28T00:20:25;15.10;;;6.30;;
20170;SDS011;10245;51.344;6.620;2023-02-28T00:22:49;11.40;;;6.53;;
20170;SDS011;10245;51.344;6.620;2023-02-28T00:25:15;11.23;;;8.03;;
20170;SDS011;10245;51.344;6.620;2023-02-28T00:27:40;16.43;;;7.03;;
20170;SDS011;10245;51.344;6.620;2023-02-28T00:30:07;13.37;;;6.97;;
20170;SDS011;10245;51.344;6.620;2023-02-28T00:32:37;16.80;;;6.80;;
20170;SDS011;10245;51.344;6.620;2023-02-28T00:35:00;11.90;;;6.83;;
20170;SDS011;10245;51.344;6.620;2023-02-28T00:37:26;11.47;;;6.30;;
20170;SDS011;10245;51.344;6.620;2023-02-28T00:39:50;12.23;;;6.43;;
20170;SDS011;10245;51.344;6.620;2023-02-28T00:42:13;10.97;;;6.63;;
20170;SDS011;10245;51.344;6.620;2023-02-28T00:44:37;12.30;;;6.23;;
20170;SDS011;10245;51.344;6.620;2023-02-28T00:47:01;10.97;;;6.40;;
20170;SDS011;10245;51.344;6.620;2023-02-28T00:49:26;12.23;;;5.60;;
20170;SDS011;10245;51.344;6.620;2023-02-28T00:51:50;9.13;;;5.45;;
20170;SDS011;10245;51.344;6.620;2023-02-28T00:54:13;8.37;;;5.20;;
20170;SDS011;10245;51.344;6.620;2023-02-28T00:56:36;10.37;;;5.30;;
20170;SDS011;10245;51.344;6.620;2023-02-28T00:59:00;9.83;;;5.17;;
20170;SDS011;10245;51.344;6.620;2023-02-28T01:01:23;8.23;;;4.63;;
20170;SDS011;10245;51.344;6.620;2023-02-28T01:03:48;8.97;;;4.80;;
20170;SDS011;10245;51.344;6.620;2023-02-28T01:06:12;8.23;;;4.93;;
20170;SDS011;10245;51.344;6.620;2023-02-28T01:08:35;7.43;;;4.67;;
20170;SDS011;10245;51.344;6.620;2023-02-28T01:11:06;8.93;;;4.60;;
20170;SDS011;10245;51.344;6.620;2023-02-28T01:13:33;8.60;;;4.83;;
20170;SDS011;10245;51.344;6.620;2023-02-28T01:15:57;10.97;;;5.37;;
20170;SDS011;10245;51.344;6.620;2023-02-28T01:18:20;9.50;;;5.57;;
20170;SDS011;10245;51.344;6.620;2023-02-28T01:20:47;11.40;;;5.63;;
20170;SDS011;10245;51.344;6.620;2023-02-28T01:23:13;9.93;;;5.10;;
20170;SDS011;10245;51.344;6.620;2023-02-28T01:25:36;8.27;;;5.57;;
20170;SDS011;10245;51.344;6.620;2023-02-28T01:28:00;11.00;;;5.77;;
20170;SDS011;10245;51.344;6.620;2023-02-28T01:30:23;7.80;;;5.43;;
20170;SDS011;10245;51.344;6.620;2023-02-28T01:32:47;9.70;;;6.10;;
20170;SDS011;10245;51.344;6.620;2023-02-28T01:35:12;10.83;;;5.47;;
20170;SDS011;10245;51.344;6.620;2023-02-28T01:37:37;11.30;;;5.77;;
20170;SDS011;10245;51.344;6.620;2023-02-28T01:40:00;9.40;;;5.53;;
20170;SDS011;10245;51.344;6.620;2023-02-28T01:42:23;10.40;;;5.80;;
20170;SDS011;10245;51.344;6.620;2023-02-28T01:45:02;9.87;;;5.57;;
20170;SDS011;10245;51.344;6.620;2023-02-28T01:47:41;9.43;;;5.67;;
20170;SDS011;10245;51.344;6.620;2023-02-28T01:50:07;12.43;;;4.97;;
20170;SDS011;10245;51.344;6.620;2023-02-28T01:52:38;8.80;;;5.10;;
20170;SDS011;10245;51.344;6.620;2023-02-28T01:55:02;10.77;;;5.30;;
20170;SDS011;10245;51.344;6.620;2023-02-28T01:57:30;8.17;;;5.43;;
20170;SDS011;10245;51.344;6.620;2023-02-28T01:59:59;9.90;;;5.33;;
20170;SDS011;10245;51.344;6.620;2023-02-28T02:02:33;11.67;;;5.77;;
20170;SDS011;10245;51.344;6.620;2023-02-28T02:04:58;9.47;;;5.10;;
20170;SDS011;10245;51.344;6.620;2023-02-28T02:07:31;8.07;;;5.27;;
20170;SDS011;10245;51.344;6.620;2023-02-28T02:10:01;9.23;;;5.97;;
20170;SDS011;10245;51.344;6.620;2023-02-28T02:12:30;8.60;;;5.40;;
20170;SDS011;10245;51.344;6.620;2023-02-28T02:15:19;10.93;;;5.43;;
20170;SDS011;10245;51.344;6.620;2023-02-28T02:17:50;13.30;;;5.93;;
20170;SDS011;10245;51.344;6.620;2023-02-28T02:20:32;9.60;;;5.23;;
20170;SDS011;10245;51.344;6.620;2023-02-28T02:23:18;7.23;;;4.60;;
20170;SDS011;10245;51.344;6.620;2023-02-28T02:25:58;8.23;;;5.20;;
20170;SDS011;10245;51.344;6.620;2023-02-28T02:29:01;10.70;;;4.87;;
20170;SDS011;10245;51.344;6.620;2023-02-28T02:34:58;9.90;;;4.77;;
20170;SDS011;10245;51.344;6.620;2023-02-28T02:37:30;10.73;;;5.40;;
20170;SDS011;10245;51.344;6.620;2023-02-28T02:40:03;9.60;;;5.10;;
20170;SDS011;10245;51.344;6.620;2023-02-28T02:42:36;10.37;;;4.90;;
20170;SDS011;10245;51.344;6.620;2023-02-28T02:45:07;8.47;;;5.20;;
20170;SDS011;10245;51.344;6.620;2023-02-28T02:47:34;8.83;;;5.30;;
20170;SDS011;10245;51.344;6.620;2023-02-28T02:50:02;7.50;;;5.30;;
20170;SDS011;10245;51.344;6.620;2023-02-28T02:52:31;9.33;;;5.67;;
20170;SDS011;10245;51.344;6.620;2023-02-28T02:55:00;9.33;;;5.33;;
20170;SDS011;10245;51.344;6.620;2023-02-28T02:57:27;8.53;;;5.10;;
20170;SDS011;10245;51.344;6.620;2023-02-28T02:59:56;7.23;;;5.10;;
20170;SDS011;10245;51.344;6.620;2023-02-28T03:02:21;8.13;;;4.70;;
20170;SDS011;10245;51.344;6.620;2023-02-28T03:04:48;9.80;;;5.23;;
20170;SDS011;10245;51.344;6.620;2023-02-28T03:07:17;9.77;;;5.37;;
20170;SDS011;10245;51.344;6.620;2023-02-28T03:09:40;9.47;;;4.50;;
20170;SDS011;10245;51.344;6.620;2023-02-28T03:12:12;8.37;;;4.90;;
20170;SDS011;10245;51.344;6.620;2023-02-28T03:14:40;13.33;;;5.43;;
20170;SDS011;10245;51.344;6.620;2023-02-28T03:17:25;10.47;;;5.73;;
20170;SDS011;10245;51.344;6.620;2023-02-28T03:20:04;8.43;;;5.23;;
20170;SDS011;10245;51.344;6.620;2023-02-28T03:22:48;12.17;;;5.20;;
20170;SDS011;10245;51.344;6.620;2023-02-28T03:25:16;10.13;;;5.57;;
20170;SDS011;10245;51.344;6.620;2023-02-28T03:27:49;6.63;;;4.50;;
20170;SDS011;10245;51.344;6.620;2023-02-28T03:30:24;8.53;;;4.93;;
20170;SDS011;10245;51.344;6.620;2023-02-28T03:32:56;8.90;;;4.87;;
20170;SDS011;10245;51.344;6.620;2023-02-28T03:35:24;7.77;;;4.57;;
20170;SDS011;10245;51.344;6.620;2023-02-28T03:38:00;10.07;;;5.13;;
20170;SDS011;10245;51.344;6.620;2023-02-28T03:40:30;7.80;;;4.77;;
20170;SDS011;10245;51.344;6.620;2023-02-28T03:42:56;7.00;;;4.17;;
20170;SDS011;10245;51.344;6.620;2023-02-28T03:45:24;10.57;;;4.40;;
20170;SDS011;10245;51.344;6.620;2023-02-28T03:47:52;8.17;;;4.73;;
20170;SDS011;10245;51.344;6.620;2023-02-28T03:50:19;10.17;;;4.53;;
20170;SDS011;10245;51.344;6.620;2023-02-28T03:52:47;7.37;;;4.13;;
20170;SDS011;10245;51.344;6.620;2023-02-28T03:55:15;8.23;;;3.67;;
20170;SDS011;10245;51.344;6.620;2023-02-28T03:57:41;6.87;;;3.73;;
20170;SDS011;10245;51.344;6.620;2023-02-28T04:00:12;9.40;;;4.23;;
20170;SDS011;10245;51.344;6.620;2023-02-28T04:02:41;7.30;;;4.07;;
20170;SDS011;10245;51.344;6.620;2023-02-28T04:05:05;7.43;;;3.80;;
20170;SDS011;10245;51.344;6.620;2023-02-28T04:07:30;6.90;;;3.80;;
20170;SDS011;10245;51.344;6.620;2023-02-28T04:09:53;9.47;;;3.83;;
20170;SDS011;10245;51.344;6.620;2023-02-28T04:12:18;6.07;;;3.43;;
20170;SDS011;10245;51.344;6.620;2023-02-28T04:14:44;8.03;;;3.40;;
20170;SDS011;10245;51.344;6.620;2023-02-28T04:17:07;7.83;;;3.53;;
20170;SDS011;10245;51.344;6.620;2023-02-28T04:19:30;5.57;;;3.23;;
20170;SDS011;10245;51.344;6.620;2023-02-28T04:21:54;6.77;;;3.77;;
20170;SDS011;10245;51.344;6.620;2023-02-28T04:24:18;5.50;;;3.53;;
20170;SDS011;10245;51.344;6.620;2023-02-28T04:26:43;7.40;;;3.40;;
20170;SDS011;10245;51.344;6.620;2023-02-28T04:29:10;5.67;;;3.80;;
20170;SDS011;10245;51.344;6.620;2023-02-28T04:31:35;7.90;;;3.77;;
20170;SDS011;10245;51.344;6.620;2023-02-28T04:33:59;6.97;;;3.70;;
20170;SDS011;10245;51.344;6.620;2023-02-28T04:36:23;9.07;;;3.90;;
20170;SDS011;10245;51.344;6.620;2023-02-28T04:38:46;5.93;;;3.37;;
20170;SDS011;10245;51.344;6.620;2023-02-28T04:41:09;7.13;;;3.40;;
20170;SDS011;10245;51.344;6.620;2023-02-28T04:43:33;7.53;;;3.50;;
20170;SDS011;10245;51.344;6.620;2023-02-28T04:45:58;7.20;;;3.70;;
20170;SDS011;10245;51.344;6.620;2023-02-28T04:48:25;8.53;;;3.90;;
20170;SDS011;10245;51.344;6.620;2023-02-28T04:50:52;5.83;;;3.93;;
20170;SDS011;10245;51.344;6.620;2023-02-28T04:53:15;6.20;;;3.90;;
20170;SDS011;10245;51.344;6.620;2023-02-28T04:55:39;6.47;;;4.20;;
20170;SDS011;10245;51.344;6.620;2023-02-28T04:58:02;9.63;;;4.50;;
20170;SDS011;10245;51.344;6.620;2023-02-28T05:00:25;7.40;;;3.87;;
20170;SDS011;10245;51.344;6.620;2023-02-28T05:02:50;10.13;;;3.87;;
20170;SDS011;10245;51.344;6.620;2023-02-28T05:05:13;10.47;;;4.37;;
20170;SDS011;10245;51.344;6.620;2023-02-28T05:07:39;10.00;;;4.30;;
20170;SDS011;10245;51.344;6.620;2023-02-28T05:10:02;5.27;;;4.03;;
20170;SDS011;10245;51.344;6.620;2023-02-28T05:12:26;8.87;;;4.70;;
20170;SDS011;10245;51.344;6.620;2023-02-28T05:14:50;9.53;;;4.33;;
20170;SDS011;10245;51.344;6.620;2023-02-28T05:17:13;8.33;;;4.50;;
20170;SDS011;10245;51.344;6.620;2023-02-28T05:19:38;10.90;;;4.70;;
20170;SDS011;10245;51.344;6.620;2023-02-28T05:22:01;8.07;;;4.53;;
20170;SDS011;10245;51.344;6.620;2023-02-28T05:24:25;5.80;;;3.93;;
20170;SDS011;10245;51.344;6.620;2023-02-28T05:26:49;5.40;;;3.87;;
20170;SDS011;10245;51.344;6.620;2023-02-28T05:29:15;9.70;;;4.90;;
20170;SDS011;10245;51.344;6.620;2023-02-28T05:31:39;7.37;;;4.63;;
20170;SDS011;10245;51.344;6.620;2023-02-28T05:34:03;8.60;;;4.97;;
20170;SDS011;10245;51.344;6.620;2023-02-28T05:36:28;8.00;;;4.07;;
20170;SDS011;10245;51.344;6.620;2023-02-28T05:38:51;6.10;;;4.17;;
20170;SDS011;10245;51.344;6.620;2023-02-28T05:41:15;9.03;;;4.00;;
20170;SDS011;10245;51.344;6.620;2023-02-28T05:43:40;7.73;;;4.20;;
20170;SDS011;10245;51.344;6.620;2023-02-28T05:46:04;7.80;;;4.07;;
20170;SDS011;10245;51.344;6.620;2023-02-28T05:48:29;8.43;;;4.10;;
20170;SDS011;10245;51.344;6.620;2023-02-28T05:50:52;5.40;;;3.87;;
20170;SDS011;10245;51.344;6.620;2023-02-28T05:53:17;7.47;;;4.30;;
20170;SDS011;10245;51.344;6.620;2023-02-28T05:55:40;9.27;;;4.50;;
20170;SDS011;10245;51.344;6.620;2023-02-28T05:58:04;5.97;;;3.53;;
20170;SDS011;10245;51.344;6.620;2023-02-28T06:00:27;5.63;;;3.50;;
20170;SDS011;10245;51.344;6.620;2023-02-28T06:02:50;6.17;;;3.43;;
20170;SDS011;10245;51.344;6.620;2023-02-28T06:05:17;8.57;;;3.73;;
20170;SDS011;10245;51.344;6.620;2023-02-28T06:07:41;7.03;;;3.43;;
20170;SDS011;10245;51.344;6.620;2023-02-28T06:10:07;7.70;;;4.03;;
20170;SDS011;10245;51.344;6.620;2023-02-28T06:12:31;6.70;;;3.50;;
20170;SDS011;10245;51.344;6.620;2023-02-28T06:14:55;9.10;;;3.80;;
20170;SDS011;10245;51.344;6.620;2023-02-28T06:17:18;6.27;;;3.57;;
20170;SDS011;10245;51.344;6.620;2023-02-28T06:19:42;7.67;;;3.93;;
20170;SDS011;10245;51.344;6.620;2023-02-28T06:22:05;8.10;;;3.67;;
20170;SDS011;10245;51.344;6.620;2023-02-28T06:24:28;12.03;;;3.87;;
20170;SDS011;10245;51.344;6.620;2023-02-28T06:26:54;6.87;;;3.43;;
20170;SDS011;10245;51.344;6.620;2023-02-28T06:29:17;9.70;;;4.50;;
20170;SDS011;10245;51.344;6.620;2023-02-28T06:31:40;10.43;;;4.10;;
20170;SDS011;10245;51.344;6.620;2023-02-28T06:34:05;8.03;;;4.03;;
20170;SDS011;10245;51.344;6.620;2023-02-28T06:36:28;7.50;;;4.37;;
20170;SDS011;10245;51.344;6.620;2023-02-28T06:38:52;7.77;;;4.57;;
20170;SDS011;10245;51.344;6.620;2023-02-28T06:41:17;6.70;;;4.20;;
20170;SDS011;10245;51.344;6.620;2023-02-28T06:43:42;7.40;;;4.20;;
20170;SDS011;10245;51.344;6.620;2023-02-28T06:46:07;7.17;;;4.27;;
20170;SDS011;10245;51.344;6.620;2023-02-28T06:48:33;11.73;;;4.90;;
20170;SDS011;10245;51.344;6.620;2023-02-28T06:51:04;7.23;;;4.30;;
20170;SDS011;10245;51.344;6.620;2023-02-28T06:53:31;8.90;;;4.13;;
20170;SDS011;10245;51.344;6.620;2023-02-28T06:55:54;7.67;;;4.07;;
20170;SDS011;10245;51.344;6.620;2023-02-28T06:58:17;7.17;;;4.00;;
20170;SDS011;10245;51.344;6.620;2023-02-28T07:00:43;8.67;;;4.23;;
20170;SDS011;10245;51.344;6.620;2023-02-28T07:03:07;9.03;;;4.37;;
20170;SDS011;10245;51.344;6.620;2023-02-28T07:05:31;8.67;;;4.43;;
20170;SDS011;10245;51.344;6.620;2023-02-28T07:07:54;12.80;;;4.60;;
20170;SDS011;10245;51.344;6.620;2023-02-28T07:10:18;13.70;;;4.40;;
20170;SDS011;10245;51.344;6.620;2023-02-28T07:12:41;10.87;;;4.17;;
20170;SDS011;10245;51.344;6.620;2023-02-28T07:15:06;11.50;;;4.63;;
20170;SDS011;10245;51.344;6.620;2023-02-28T07:17:32;11.27;;;4.70;;
20170;SDS011;10245;51.344;6.620;2023-02-28T07:19:55;9.10;;;3.83;;
20170;SDS011;10245;51.344;6.620;2023-02-28T07:22:18;7.73;;;3.87;;
20170;SDS011;10245;51.344;6.620;2023-02-28T07:24:42;10.27;;;4.27;;
20170;SDS011;10245;51.344;6.620;2023-02-28T07:27:05;8.73;;;4.00;;
20170;SDS011;10245;51.344;6.620;2023-02-28T07:29:29;9.07;;;4.00;;
20170;SDS011;10245;51.344;6.620;2023-02-28T07:31:52;8.70;;;4.03;;
20170;SDS011;10245;51.344;6.620;2023-02-28T07:34:17;8.13;;;3.77;;
20170;SDS011;10245;51.344;6.620;2023-02-28T07:36:41;10.90;;;3.63;;
20170;SDS011;10245;51.344;6.620;2023-02-28T07:39:04;13.43;;;4.20;;
20170;SDS011;10245;51.344;6.620;2023-02-28T07:41:28;6.53;;;3.80;;
20170;SDS011;10245;51.344;6.620;2023-02-28T07:43:52;8.27;;;3.37;;
20170;SDS011;10245;51.344;6.620;2023-02-28T07:46:17;10.57;;;4.07;;
20170;SDS011;10245;51.344;6.620;2023-02-28T07:48:42;7.13;;;3.63;;
20170;SDS011;10245;51.344;6.620;2023-02-28T07:51:08;7.37;;;3.70;;
20170;SDS011;10245;51.344;6.620;2023-02-28T07:53:31;6.50;;;3.80;;
20170;SDS011;10245;51.344;6.620;2023-02-28T07:55:55;8.47;;;3.60;;
20170;SDS011;10245;51.344;6.620;2023-02-28T07:58:19;7.33;;;3.83;;
20170;SDS011;10245;51.344;6.620;2023-02-28T08:00:42;9.17;;;3.50;;
20170;SDS011;10245;51.344;6.620;2023-02-28T08:03:06;9.13;;;3.87;;
20170;SDS011;10245;51.344;6.620;2023-02-28T08:05:31;9.63;;;3.83;;
20170;SDS011;10245;51.344;6.620;2023-02-28T08:07:55;9.43;;;3.50;;
20170;SDS011;10245;51.344;6.620;2023-02-28T08:10:19;10.17;;;6.10;;
20170;SDS011;10245;51.344;6.620;2023-02-28T08:12:43;7.10;;;3.00;;
20170;SDS011;10245;51.344;6.620;2023-02-28T08:15:07;5.37;;;2.90;;
20170;SDS011;10245;51.344;6.620;2023-02-28T08:17:31;6.37;;;3.50;;
20170;SDS011;10245;51.344;6.620;2023-02-28T08:19:55;5.70;;;3.17;;
20170;SDS011;10245;51.344;6.620;2023-02-28T08:22:19;6.37;;;3.20;;
20170;SDS011;10245;51.344;6.620;2023-02-28T08:24:44;5.40;;;2.83;;
20170;SDS011;10245;51.344;6.620;2023-02-28T08:27:07;6.63;;;3.03;;
20170;SDS011;10245;51.344;6.620;2023-02-28T08:29:30;4.80;;;2.60;;
20170;SDS011;10245;51.344;6.620;2023-02-28T08:31:54;7.03;;;3.00;;
20170;SDS011;10245;51.344;6.620;2023-02-28T08:34:18;5.73;;;3.10;;
20170;SDS011;10245;51.344;6.620;2023-02-28T08:36:41;8.10;;;3.23;;
20170;SDS011;10245;51.344;6.620;2023-02-28T08:39:06;9.43;;;3.70;;
20170;SDS011;10245;51.344;6.620;2023-02-28T08:41:31;15.02;;;7.68;;
20170;SDS011;10245;51.344;6.620;2023-02-28T08:43:55;5.30;;;2.80;;
20170;SDS011;10245;51.344;6.620;2023-02-28T08:46:18;5.80;;;3.60;;
20170;SDS011;10245;51.344;6.620;2023-02-28T08:48:42;4.87;;;2.63;;
20170;SDS011;10245;51.344;6.620;2023-02-28T08:51:07;4.03;;;2.40;;
20170;SDS011;10245;51.344;6.620;2023-02-28T08:53:32;2.83;;;2.38;;
20170;SDS011;10245;51.344;6.620;2023-02-28T08:55:56;6.10;;;3.13;;
20170;SDS011;10245;51.344;6.620;2023-02-28T08:58:22;5.93;;;3.20;;
20170;SDS011;10245;51.344;6.620;2023-02-28T09:00:45;7.93;;;4.73;;
20170;SDS011;10245;51.344;6.620;2023-02-28T09:03:09;4.32;;;2.85;;
20170;SDS011;10245;51.344;6.620;2023-02-28T09:05:32;5.10;;;3.25;;
20170;SDS011;10245;51.344;6.620;2023-02-28T09:07:55;4.28;;;2.70;;
20170;SDS011;10245;51.344;6.620;2023-02-28T09:10:19;5.60;;;2.50;;
20170;SDS011;10245;51.344;6.620;2023-02-28T09:12:42;5.33;;;2.80;;
20170;SDS011;10245;51.344;6.620;2023-02-28T09:15:10;6.70;;;4.88;;
20170;SDS011;10245;51.344;6.620;2023-02-28T09:17:33;4.88;;;2.60;;
20170;SDS011;10245;51.344;6.620;2023-02-28T09:19:57;2.42;;;1.98;;
20170;SDS011;10245;51.344;6.620;2023-02-28T09:22:20;3.75;;;3.22;;
20170;SDS011;10245;51.344;6.620;2023-02-28T09:24:43;6.35;;;2.50;;
20170;SDS011;10245;51.344;6.620;2023-02-28T09:27:07;5.35;;;2.38;;
20170;SDS011;10245;51.344;6.620;2023-02-28T09:29:31;3.25;;;1.77;;
20170;SDS011;10245;51.344;6.620;2023-02-28T09:31:56;2.85;;;1.95;;
20170;SDS011;10245;51.344;6.620;2023-02-28T09:34:20;3.03;;;2.30;;
20170;SDS011;10245;51.344;6.620;2023-02-28T09:36:43;3.75;;;3.08;;
20170;SDS011;10245;51.344;6.620;2023-02-28T09:39:07;6.32;;;3.33;;
20170;SDS011;10245;51.344;6.620;2023-02-28T09:41:32;4.22;;;2.70;;
20170;SDS011;10245;51.344;6.620;2023-02-28T09:44:09;3.80;;;2.35;;
20170;SDS011;10245;51.344;6.620;2023-02-28T09:46:41;4.60;;;2.35;;
20170;SDS011;10245;51.344;6.620;2023-02-28T09:49:11;3.10;;;2.10;;
20170;SDS011;10245;51.344;6.620;2023-02-28T09:51:40;4.68;;;2.60;;
20170;SDS011;10245;51.344;6.620;2023-02-28T09:54:13;5.70;;;2.30;;
20170;SDS011;10245;51.344;6.620;2023-02-28T09:56:41;4.57;;;2.47;;
20170;SDS011;10245;51.344;6.620;2023-02-28T09:59:09;3.88;;;2.35;;
20170;SDS011;10245;51.344;6.620;2023-02-28T10:01:43;6.75;;;2.50;;
20170;SDS011;10245;51.344;6.620;2023-02-28T10:04:22;4.57;;;2.00;;
20170;SDS011;10245;51.344;6.620;2023-02-28T10:07:00;6.32;;;2.53;;
20170;SDS011;10245;51.344;6.620;2023-02-28T10:09:29;3.33;;;2.30;;
20170;SDS011;10245;51.344;6.620;2023-02-28T10:11:56;7.28;;;2.42;;
20170;SDS011;10245;51.344;6.620;2023-02-28T10:14:27;7.28;;;2.45;;
20170;SDS011;10245;51.344;6.620;2023-02-28T10:16:53;5.30;;;2.97;;
20170;SDS011;10245;51.344;6.620;2023-02-28T10:19:23;4.18;;;2.40;;
20170;SDS011;10245;51.344;6.620;2023-02-28T10:21:55;3.10;;;2.22;;
20170;SDS011;10245;51.344;6.620;2023-02-28T10:24:23;5.00;;;2.20;;
20170;SDS011;10245;51.344;6.620;2023-02-28T10:26:52;6.35;;;2.20;;
20170;SDS011;10245;51.344;6.620;2023-02-28T10:29:21;4.72;;;2.22;;
20170;SDS011;10245;51.344;6.620;2023-02-28T10:31:44;2.63;;;2.08;;
20170;SDS011;10245;51.344;6.620;2023-02-28T10:34:07;4.53;;;2.42;;
20170;SDS011;10245;51.344;6.620;2023-02-28T10:36:36;3.03;;;2.25;;
20170;SDS011;10245;51.344;6.620;2023-02-28T10:38:59;9.07;;;2.47;;
20170;SDS011;10245;51.344;6.620;2023-02-28T10:41:27;7.85;;;2.30;;
20170;SDS011;10245;51.344;6.620;2023-02-28T10:44:12;3.25;;;1.92;;
20170;SDS011;10245;51.344;6.620;2023-02-28T10:46:37;2.70;;;2.10;;
20170;SDS011;10245;51.344;6.620;2023-02-28T10:49:03;2.33;;;1.92;;
20170;SDS011;10245;51.344;6.620;2023-02-28T10:51:34;3.33;;;1.83;;
20170;SDS011;10245;51.344;6.620;2023-02-28T10:54:00;3.80;;;2.00;;
20170;SDS011;10245;51.344;6.620;2023-02-28T10:56:26;7.60;;;2.05;;
20170;SDS011;10245;51.344;6.620;2023-02-28T10:58:52;3.28;;;1.95;;
20170;SDS011;10245;51.344;6.620;2023-02-28T11:01:19;3.78;;;1.83;;
20170;SDS011;10245;51.344;6.620;2023-02-28T11:03:45;3.15;;;1.77;;
20170;SDS011;10245;51.344;6.620;2023-02-28T11:06:13;4.43;;;1.88;;
20170;SDS011;10245;51.344;6.620;2023-02-28T11:08:45;3.38;;;2.05;;
20170;SDS011;10245;51.344;6.620;2023-02-28T11:11:10;6.13;;;2.75;;
20170;SDS011;10245;51.344;6.620;2023-02-28T11:13:35;5.07;;;2.13;;
20170;SDS011;10245;51.344;6.620;2023-02-28T11:15:59;8.88;;;2.40;;
20170;SDS011;10245;51.344;6.620;2023-02-28T11:18:28;4.90;;;2.08;;
20170;SDS011;10245;51.344;6.620;2023-02-28T11:21:00;5.22;;;2.25;;
20170;SDS011;10245;51.344;6.620;2023-02-28T11:23:26;6.43;;;2.00;;
20170;SDS011;10245;51.344;6.620;2023-02-28T11:25:54;5.07;;;1.90;;
20170;SDS011;10245;51.344;6.620;2023-02-28T11:28:25;4.57;;;2.45;;
20170;SDS011;10245;51.344;6.620;2023-02-28T11:30:59;4.40;;;2.22;;
20170;SDS011;10245;51.344;6.620;2023-02-28T11:33:27;4.80;;;2.20;;
20170;SDS011;10245;51.344;6.620;2023-02-28T11:35:52;7.57;;;2.72;;
20170;SDS011;10245;51.344;6.620;2023-02-28T11:38:22;5.20;;;2.03;;
20170;SDS011;10245;51.344;6.620;2023-02-28T11:40:47;5.85;;;2.00;;
20170;SDS011;10245;51.344;6.620;2023-02-28T11:43:30;6.00;;;2.25;;
20170;SDS011;10245;51.344;6.620;2023-02-28T11:46:16;4.68;;;2.10;;
20170;SDS011;10245;51.344;6.620;2023-02-28T11:48:53;2.35;;;1.75;;
20170;SDS011;10245;51.344;6.620;2023-02-28T11:51:27;4.30;;;2.00;;
20170;SDS011;10245;51.344;6.620;2023-02-28T11:54:12;4.47;;;1.73;;
20170;SDS011;10245;51.344;6.620;2023-02-28T11:57:00;4.43;;;1.95;;
20170;SDS011;10245;51.344;6.620;2023-02-28T11:59:41;4.43;;;1.92;;
20170;SDS011;10245;51.344;6.620;2023-02-28T12:02:28;3.90;;;2.33;;
20170;SDS011;10245;51.344;6.620;2023-02-28T12:05:01;5.60;;;2.60;;
20170;SDS011;10245;51.344;6.620;2023-02-28T12:07:47;6.57;;;2.20;;
20170;SDS011;10245;51.344;6.620;2023-02-28T12:10:21;4.57;;;2.17;;
20170;SDS011;10245;51.344;6.620;2023-02-28T12:12:50;6.20;;;2.10;;
20170;SDS011;10245;51.344;6.620;2023-02-28T12:15:38;6.85;;;2.53;;
20170;SDS011;10245;51.344;6.620;2023-02-28T12:18:20;5.40;;;2.45;;
20170;SDS011;10245;51.344;6.620;2023-02-28T12:21:04;8.15;;;2.35;;
20170;SDS011;10245;51.344;6.620;2023-02-28T12:26:40;2.90;;;2.20;;
20170;SDS011;10245;51.344;6.620;2023-02-28T12:29:10;5.68;;;2.08;;
20170;SDS011;10245;51.344;6.620;2023-02-28T12:31:41;7.53;;;2.92;;
20170;SDS011;10245;51.344;6.620;2023-02-28T12:34:12;4.97;;;2.20;;
20170;SDS011;10245;51.344;6.620;2023-02-28T12:36:39;4.40;;;2.10;;
20170;SDS011;10245;51.344;6.620;2023-02-28T12:39:07;6.55;;;2.40;;
20170;SDS011;10245;51.344;6.620;2023-02-28T12:41:37;5.70;;;2.20;;
20170;SDS011;10245;51.344;6.620;2023-02-28T12:44:07;4.72;;;2.30;;
20170;SDS011;10245;51.344;6.620;2023-02-28T12:46:36;2.92;;;2.35;;
20170;SDS011;10245;51.344;6.620;2023-02-28T12:49:05;8.10;;;2.38;;
20170;SDS011;10245;51.344;6.620;2023-02-28T12:51:33;5.90;;;2.40;;
20170;SDS011;10245;51.344;6.620;2023-02-28T12:54:01;5.00;;;2.05;;
20170;SDS011;10245;51.344;6.620;2023-02-28T12:56:35;6.80;;;2.33;;
20170;SDS011;10245;51.344;6.620;2023-02-28T12:59:09;3.55;;;1.80;;
20170;SDS011;10245;51.344;6.620;2023-02-28T13:05:12;7.20;;;2.85;;
20170;SDS011;10245;51.344;6.620;2023-02-28T13:08:04;2.97;;;1.92;;
20170;SDS011;10245;51.344;6.620;2023-02-28T13:10:47;5.70;;;2.30;;
20170;SDS011;10245;51.344;6.620;2023-02-28T13:13:16;2.38;;;2.17;;
20170;SDS011;10245;51.344;6.620;2023-02-28T13:15:54;5.45;;;1.92;;
20170;SDS011;10245;51.344;6.620;2023-02-28T13:18:27;3.50;;;2.28;;
20170;SDS011;10245;51.344;6.620;2023-02-28T13:20:55;3.38;;;2.40;;
20170;SDS011;10245;51.344;6.620;2023-02-28T13:26:19;3.90;;;2.28;;
20170;SDS011;10245;51.344;6.620;2023-02-28T13:38:21;4.30;;;2.15;;
20170;SDS011;10245;51.344;6.620;2023-02-28T13:44:07;2.80;;;2.50;;
20170;SDS011;10245;51.344;6.620;2023-02-28T13:46:32;4.45;;;2.15;;
20170;SDS011;10245;51.344;6.620;2023-02-28T13:51:48;4.18;;;2.28;;
20170;SDS011;10245;51.344;6.620;2023-02-28T13:54:17;4.78;;;2.38;;
20170;SDS011;10245;51.344;6.620;2023-02-28T13:57:03;5.95;;;2.65;;
20170;SDS011;10245;51.344;6.620;2023-02-28T13:59:38;4.28;;;2.40;;
20170;SDS011;10245;51.344;6.620;2023-02-28T14:02:18;6.68;;;3.60;;
20170;SDS011;10245;51.344;6.620;2023-02-28T14:05:06;3.53;;;2.60;;
20170;SDS011;10245;51.344;6.620;2023-02-28T14:07:38;7.05;;;2.65;;
20170;SDS011;10245;51.344;6.620;2023-02-28T14:10:17;4.03;;;2.58;;
20170;SDS011;10245;51.344;6.620;2023-02-28T14:12:55;8.18;;;2.63;;
20170;SDS011;10245;51.344;6.620;2023-02-28T14:18:22;5.93;;;2.90;;
20170;SDS011;10245;51.344;6.620;2023-02-28T14:20:53;8.00;;;3.50;;
20170;SDS011;10245;51.344;6.620;2023-02-28T14:23:32;5.43;;;2.75;;
20170;SDS011;10245;51.344;6.620;2023-02-28T14:26:07;6.47;;;2.90;;
20170;SDS011;10245;51.344;6.620;2023-02-28T14:28:52;5.00;;;2.40;;
20170;SDS011;10245;51.344;6.620;2023-02-28T14:31:33;4.10;;;2.90;;
20170;SDS011;10245;51.344;6.620;2023-02-28T14:34:04;9.02;;;5.35;;
20170;SDS011;10245;51.344;6.620;2023-02-28T14:36:44;6.18;;;3.33;;
20170;SDS011;10245;51.344;6.620;2023-02-28T14:39:11;7.55;;;4.25;;
20170;SDS011;10245;51.344;6.620;2023-02-28T14:41:38;7.15;;;3.15;;
20170;SDS011;10245;51.344;6.620;2023-02-28T14:44:12;4.82;;;2.70;;
20170;SDS011;10245;51.344;6.620;2023-02-28T14:46:39;4.93;;;2.63;;
20170;SDS011;10245;51.344;6.620;2023-02-28T14:49:04;4.57;;;2.92;;
20170;SDS011;10245;51.344;6.620;2023-02-28T14:51:29;6.22;;;2.95;;
20170;SDS011;10245;51.344;6.620;2023-02-28T14:53:57;5.47;;;3.15;;
20170;SDS011;10245;51.344;6.620;2023-02-28T14:56:24;4.15;;;2.90;;
20170;SDS011;10245;51.344;6.620;2023-02-28T14:58:53;5.18;;;3.20;;
20170;SDS011;10245;51.344;6.620;2023-02-28T15:01:19;5.95;;;2.67;;
20170;SDS011;10245;51.344;6.620;2023-02-28T15:03:43;5.50;;;3.00;;
20170;SDS011;10245;51.344;6.620;2023-02-28T15:06:12;4.80;;;3.13;;
20170;SDS011;10245;51.344;6.620;2023-02-28T15:08:38;4.25;;;2.85;;
20170;SDS011;10245;51.344;6.620;2023-02-28T15:11:04;6.38;;;2.70;;
20170;SDS011;10245;51.344;6.620;2023-02-28T15:13:33;6.38;;;3.20;;
20170;SDS011;10245;51.344;6.620;2023-02-28T15:16:01;4.32;;;3.00;;
20170;SDS011;10245;51.344;6.620;2023-02-28T15:18:29;5.97;;;2.90;;
20170;SDS011;10245;51.344;6.620;2023-02-28T15:21:02;4.50;;;3.10;;